createdAt,value
2022-11-24T00:01:52.546Z,39.00
2022-11-24T00:04:22.086Z,37.33
2022-11-24T00:06:50.773Z,55.00
2022-11-24T00:09:20.712Z,42.33
2022-11-24T00:11:50.139Z,56.00
2022-11-24T00:14:19.044Z,47.50
2022-11-24T00:16:47.722Z,50.00
2022-11-24T00:19:19.978Z,56.33
2022-11-24T00:21:49.570Z,55.67
2022-11-24T00:24:18.225Z,53.00
2022-11-24T00:26:46.872Z,54.00
2022-11-24T00:29:15.563Z,50.00
2022-11-24T00:31:44.223Z,53.00
2022-11-24T00:34:15.090Z,52.00
2022-11-24T00:36:44.527Z,59.67
2022-11-24T00:39:15.991Z,57.00
2022-11-24T00:41:45.399Z,57.33
2022-11-24T00:44:14.221Z,56.50
2022-11-24T00:46:43.770Z,56.00
2022-11-24T00:49:12.520Z,46.00
2022-11-24T00:51:41.223Z,56.00
2022-11-24T00:54:10.702Z,51.67
2022-11-24T00:56:40.191Z,55.00
2022-11-24T00:59:09.655Z,58.33
2022-11-24T01:01:39.140Z,48.00
2022-11-24T01:04:08.733Z,57.00
2022-11-24T01:06:38.184Z,49.33
2022-11-24T01:09:06.836Z,53.00
2022-11-24T01:11:55.262Z,55.50
2022-11-24T01:14:25.701Z,58.67
2022-11-24T01:16:56.028Z,59.00
2022-11-24T01:19:25.574Z,67.33
2022-11-24T01:21:55.039Z,66.33
2022-11-24T01:24:23.841Z,54.00
2022-11-24T01:26:53.240Z,55.67
2022-11-24T01:29:22.668Z,47.33
2022-11-24T01:31:52.137Z,51.67
2022-11-24T01:34:21.651Z,47.33
2022-11-24T01:36:50.420Z,42.00
2022-11-24T01:39:19.002Z,42.33
2022-11-24T01:41:48.380Z,36.33
2022-11-24T01:44:32.412Z,39.67
2022-11-24T01:47:23.417Z,31.67
2022-11-24T01:49:58.284Z,35.00
2022-11-24T01:52:44.811Z,35.33
2022-11-24T01:55:26.405Z,32.67
2022-11-24T01:57:57.398Z,36.67
2022-11-24T02:00:26.670Z,31.00
2022-11-24T02:02:55.483Z,35.50
2022-11-24T02:05:40.852Z,33.00
2022-11-24T02:08:51.495Z,30.50
2022-11-24T02:11:24.584Z,32.00
2022-11-24T02:13:55.118Z,31.00
2022-11-24T02:16:24.665Z,31.67
2022-11-24T02:18:54.219Z,41.00
2022-11-24T02:21:23.777Z,33.33
2022-11-24T02:24:14.035Z,33.00
2022-11-24T02:26:48.166Z,41.33
2022-11-24T02:29:17.448Z,45.67
2022-11-24T02:31:54.832Z,37.67
2022-11-24T02:34:23.650Z,36.33
2022-11-24T02:36:53.035Z,35.67
2022-11-24T02:39:22.191Z,51.00
2022-11-24T02:42:00.464Z,43.33
2022-11-24T02:44:39.893Z,47.00
2022-11-24T02:47:14.152Z,53.00
2022-11-24T02:49:42.819Z,48.00
2022-11-24T02:52:12.317Z,43.00
2022-11-24T02:54:41.093Z,47.00
2022-11-24T02:57:11.598Z,49.00
2022-11-24T02:59:41.140Z,41.67
2022-11-24T03:02:10.614Z,42.00
2022-11-24T03:04:39.249Z,49.50
2022-11-24T03:07:08.157Z,48.00
2022-11-24T03:09:36.793Z,50.00
2022-11-24T03:12:05.686Z,42.00
2022-11-24T03:14:34.491Z,43.00
2022-11-24T03:17:04.225Z,46.50
2022-11-24T03:19:33.884Z,44.00
2022-11-24T03:22:03.717Z,42.67
2022-11-24T03:24:33.391Z,34.67
2022-11-24T03:27:02.220Z,32.00
2022-11-24T03:29:30.822Z,41.50
2022-11-24T03:31:59.672Z,41.00
2022-11-24T03:34:28.322Z,46.00
2022-11-24T03:36:57.070Z,44.50
2022-11-24T03:39:25.702Z,48.50
2022-11-24T03:41:55.120Z,58.67
2022-11-24T03:44:24.619Z,62.00
2022-11-24T03:46:54.174Z,69.00
2022-11-24T03:49:22.890Z,78.00
2022-11-24T03:51:52.421Z,67.67
2022-11-24T03:54:22.114Z,66.00
2022-11-24T03:56:50.739Z,42.50
2022-11-24T03:59:19.406Z,55.00
2022-11-24T04:01:48.804Z,50.67
2022-11-24T04:04:17.476Z,55.67
2022-11-24T04:06:46.183Z,49.50
2022-11-24T04:09:14.987Z,52.00
2022-11-24T04:12:02.138Z,44.00
2022-11-24T04:14:30.754Z,43.50
2022-11-24T04:17:00.226Z,57.00
2022-11-24T04:19:29.783Z,45.67
2022-11-24T04:21:59.279Z,46.00
2022-11-24T04:24:27.917Z,57.00
2022-11-24T04:26:57.346Z,43.00
2022-11-24T04:29:26.762Z,57.33
2022-11-24T04:31:56.267Z,52.00
2022-11-24T04:34:25.713Z,62.00
2022-11-24T04:36:55.097Z,59.33
2022-11-24T04:39:28.521Z,63.00
2022-11-24T04:41:58.402Z,55.67
2022-11-24T04:44:27.961Z,55.33
2022-11-24T04:46:57.371Z,49.00
2022-11-24T04:49:26.835Z,54.67
2022-11-24T04:51:56.092Z,46.00
2022-11-24T04:54:25.545Z,51.00
2022-11-24T04:56:54.228Z,53.50
2022-11-24T04:59:23.633Z,53.33
2022-11-24T05:01:53.197Z,41.67
2022-11-24T05:04:22.256Z,51.50
2022-11-24T05:06:51.724Z,52.00
2022-11-24T05:09:21.171Z,56.00
2022-11-24T05:11:50.551Z,54.00
2022-11-24T05:14:19.973Z,55.67
2022-11-24T05:16:49.419Z,63.33
2022-11-24T05:19:18.983Z,65.67
2022-11-24T05:21:48.371Z,61.67
2022-11-24T05:24:17.776Z,59.00
2022-11-24T05:26:47.178Z,55.33
2022-11-24T05:29:16.672Z,66.00
2022-11-24T05:31:45.344Z,74.67
2022-11-24T05:34:15.626Z,59.33
2022-11-24T05:36:54.327Z,69.00
2022-11-24T05:39:23.811Z,76.67
2022-11-24T05:41:52.669Z,71.67
2022-11-24T05:44:22.145Z,69.33
2022-11-24T05:46:52.071Z,77.33
2022-11-24T05:49:21.551Z,72.33
2022-11-24T05:51:50.976Z,74.00
2022-11-24T05:54:20.494Z,77.67
2022-11-24T05:56:49.946Z,76.67
2022-11-24T05:59:19.474Z,79.00
2022-11-24T06:01:49.177Z,90.33
2022-11-24T06:04:18.773Z,80.00
2022-11-24T06:06:48.104Z,77.00
2022-11-24T06:09:17.901Z,72.00
2022-11-24T06:11:48.806Z,74.67
2022-11-24T06:14:18.285Z,81.33
2022-11-24T06:16:47.799Z,74.33
2022-11-24T06:19:17.375Z,75.33
2022-11-24T06:21:46.833Z,71.00
2022-11-24T06:24:16.316Z,76.33
2022-11-24T06:26:45.780Z,75.33
2022-11-24T06:29:15.448Z,74.00
2022-11-24T06:31:44.950Z,77.00
2022-11-24T06:34:14.640Z,76.33
2022-11-24T06:36:43.303Z,77.33
2022-11-24T06:39:12.912Z,80.67
2022-11-24T06:41:42.358Z,76.67
2022-11-24T06:44:11.834Z,84.33
2022-11-24T06:46:41.488Z,89.33
2022-11-24T06:49:11.152Z,84.67
2022-11-24T06:51:41.964Z,89.67
2022-11-24T06:54:21.185Z,86.33
2022-11-24T06:56:55.608Z,97.75
2022-11-24T06:59:26.641Z,107.67
2022-11-24T07:01:57.004Z,106.25
2022-11-24T07:04:26.551Z,85.67
2022-11-24T07:06:56.115Z,79.67
2022-11-24T07:09:25.604Z,85.00
2022-11-24T07:11:57.350Z,81.67
2022-11-24T07:14:26.786Z,84.00
2022-11-24T07:16:56.349Z,75.67
2022-11-24T07:19:25.801Z,81.33
2022-11-24T07:21:55.476Z,86.33
2022-11-24T07:24:24.959Z,87.33
2022-11-24T07:26:54.539Z,89.00
2022-11-24T07:29:24.156Z,104.33
2022-11-24T07:31:53.688Z,83.33
2022-11-24T07:34:23.274Z,79.00
2022-11-24T07:36:52.769Z,79.67
2022-11-24T07:39:22.269Z,83.00
2022-11-24T07:41:52.635Z,103.50
2022-11-24T07:44:22.987Z,95.25
2022-11-24T07:46:53.092Z,87.33
2022-11-24T07:49:22.565Z,84.67
2022-11-24T07:51:52.489Z,76.67
2022-11-24T07:54:21.962Z,88.50
2022-11-24T07:56:51.457Z,88.00
2022-11-24T07:59:21.025Z,86.00
2022-11-24T08:01:50.604Z,90.00
2022-11-24T08:04:21.176Z,126.25
2022-11-24T08:06:51.729Z,94.00
2022-11-24T08:09:21.271Z,88.00
2022-11-24T08:11:50.852Z,104.67
2022-11-24T08:14:20.401Z,94.00
2022-11-24T08:16:50.010Z,87.67
2022-11-24T08:19:19.574Z,85.00
2022-11-24T08:21:49.235Z,88.33
2022-11-24T08:24:18.803Z,88.00
2022-11-24T08:26:48.279Z,84.25
2022-11-24T08:29:17.829Z,111.25
2022-11-24T08:31:47.424Z,93.00
2022-11-24T08:34:17.005Z,85.67
2022-11-24T08:36:46.524Z,85.67
2022-11-24T08:39:16.317Z,85.67
2022-11-24T08:41:46.127Z,89.00
2022-11-24T08:44:18.270Z,87.67
2022-11-24T08:46:47.948Z,89.00
2022-11-24T08:49:19.072Z,82.67
2022-11-24T08:51:50.094Z,91.25
2022-11-24T08:54:19.758Z,93.00
2022-11-24T08:56:50.642Z,95.00
2022-11-24T08:59:20.293Z,93.50
2022-11-24T09:01:50.005Z,89.33
2022-11-24T09:04:19.768Z,88.75
2022-11-24T09:06:49.328Z,91.75
2022-11-24T09:09:19.288Z,79.00
2022-11-24T09:11:48.793Z,80.67
2022-11-24T09:14:18.414Z,87.67
2022-11-24T09:16:48.036Z,83.67
2022-11-24T09:19:17.618Z,76.67
2022-11-24T09:21:47.127Z,83.33
2022-11-24T09:24:16.734Z,84.33
2022-11-24T09:26:47.909Z,87.33
2022-11-24T09:29:17.482Z,80.50
2022-11-24T09:31:46.979Z,81.00
2022-11-24T09:34:16.963Z,64.00
2022-11-24T09:36:45.656Z,72.00
2022-11-24T09:39:15.046Z,65.00
2022-11-24T09:42:13.093Z,70.33
2022-11-24T09:45:15.145Z,75.00
2022-11-24T09:48:04.180Z,73.33
2022-11-24T09:50:39.498Z,61.67
2022-11-24T09:53:41.931Z,65.00
2022-11-24T09:56:36.722Z,65.00
2022-11-24T09:59:17.183Z,79.50
2022-11-24T10:01:49.599Z,70.67
2022-11-24T10:04:40.986Z,54.00
2022-11-24T10:07:31.053Z,67.00
2022-11-24T10:10:25.244Z,64.33
2022-11-24T10:13:50.316Z,61.00
2022-11-24T10:17:04.625Z,63.33
2022-11-24T10:20:09.848Z,53.00
2022-11-24T10:26:39.310Z,51.00
2022-11-24T10:29:27.138Z,58.67
2022-11-24T10:31:58.060Z,55.33
2022-11-24T10:34:38.783Z,54.00
2022-11-24T10:37:46.344Z,56.00
2022-11-24T10:43:29.991Z,53.00
2022-11-24T10:46:20.689Z,56.00
2022-11-24T10:49:01.149Z,49.67
2022-11-24T10:52:03.445Z,57.33
2022-11-24T10:54:36.033Z,55.50
2022-11-24T10:57:05.518Z,49.00
2022-11-24T10:59:40.395Z,52.67
2022-11-24T11:02:42.064Z,57.67
2022-11-24T11:05:54.345Z,53.00
2022-11-24T11:08:32.572Z,58.00
2022-11-24T11:11:36.057Z,66.00
2022-11-24T11:14:13.057Z,50.67
2022-11-24T11:16:52.951Z,55.67
2022-11-24T11:19:54.152Z,61.00
2022-11-24T11:22:31.308Z,62.00
2022-11-24T11:25:34.478Z,64.67
2022-11-24T11:28:30.923Z,57.33
2022-11-24T11:31:22.157Z,46.00
2022-11-24T11:34:23.316Z,50.67
2022-11-24T11:36:56.410Z,58.00
2022-11-24T11:39:48.502Z,64.00
2022-11-24T11:43:00.607Z,59.33
2022-11-24T11:45:37.008Z,59.33
2022-11-24T11:48:27.763Z,49.33
2022-11-24T11:51:24.548Z,46.00
2022-11-24T11:54:30.337Z,52.00
2022-11-24T11:57:29.377Z,57.67
2022-11-24T12:00:22.111Z,55.33
2022-11-24T12:03:09.511Z,66.00
2022-11-24T12:06:15.589Z,79.25
2022-11-24T12:09:19.230Z,76.67
2022-11-24T12:12:03.849Z,71.00
2022-11-24T12:15:23.258Z,60.67
2022-11-24T12:18:21.640Z,52.00
2022-11-24T12:21:37.483Z,54.00
2022-11-24T12:24:44.772Z,56.00
2022-11-24T12:27:51.669Z,53.00
2022-11-24T12:30:24.089Z,55.33
2022-11-24T12:33:44.009Z,58.00
2022-11-24T12:36:25.505Z,56.67
2022-11-24T12:39:36.042Z,53.33
2022-11-24T12:42:30.941Z,57.00
2022-11-24T12:45:09.303Z,55.67
2022-11-24T12:48:14.181Z,70.33
2022-11-24T12:50:46.823Z,59.33
2022-11-24T12:53:37.102Z,54.67
2022-11-24T12:56:15.999Z,68.00
2022-11-24T12:58:52.697Z,62.67
2022-11-24T13:01:52.314Z,60.67
2022-11-24T13:04:40.854Z,54.00
2022-11-24T13:07:38.078Z,66.67
2022-11-24T13:10:53.565Z,57.33
2022-11-24T13:13:18.516Z,67.33
2022-11-24T13:17:06.324Z,69.33
2022-11-24T13:19:14.158Z,52.33
2022-11-24T13:21:45.555Z,65.67
2022-11-24T13:24:18.836Z,49.67
2022-11-24T13:27:16.438Z,73.00
2022-11-24T13:29:48.971Z,69.00
2022-11-24T13:32:18.431Z,67.67
2022-11-24T13:34:55.044Z,50.00
2022-11-24T13:37:35.444Z,68.33
2022-11-24T13:40:14.655Z,70.67
2022-11-24T13:43:00.506Z,62.67
2022-11-24T13:45:45.320Z,68.33
2022-11-24T13:48:21.380Z,63.00
2022-11-24T13:50:51.543Z,50.67
2022-11-24T13:53:32.922Z,55.33
2022-11-24T13:56:15.151Z,50.33
2022-11-24T13:58:54.194Z,55.67
2022-11-24T14:01:46.981Z,52.00
2022-11-24T14:04:30.676Z,56.67
2022-11-24T14:07:09.200Z,46.00
2022-11-24T14:09:47.904Z,56.33
2022-11-24T14:12:21.217Z,53.67
2022-11-24T14:14:55.816Z,60.33
2022-11-24T14:17:28.719Z,58.33
2022-11-24T14:19:59.273Z,57.67
2022-11-24T14:22:44.185Z,58.67
2022-11-24T14:25:32.003Z,61.00
2022-11-24T14:28:01.564Z,65.00
2022-11-24T14:30:31.343Z,62.33
2022-11-24T14:33:04.015Z,55.00
2022-11-24T14:35:36.434Z,70.67
2022-11-24T14:38:06.914Z,72.00
2022-11-24T14:40:57.023Z,80.00
2022-11-24T14:43:31.075Z,81.67
2022-11-24T14:46:19.207Z,68.00
2022-11-24T14:48:53.927Z,65.00
2022-11-24T14:51:33.651Z,74.00
2022-11-24T14:54:15.104Z,63.67
2022-11-24T14:57:00.284Z,66.00
2022-11-24T14:59:34.838Z,74.00
2022-11-24T15:02:40.743Z,76.33
2022-11-24T15:05:11.064Z,60.00
2022-11-24T15:07:45.770Z,69.67
2022-11-24T15:10:37.379Z,69.67
2022-11-24T15:13:24.545Z,67.67
2022-11-24T15:16:09.470Z,64.33
2022-11-24T15:18:47.320Z,63.00
2022-11-24T15:21:19.451Z,69.67
2022-11-24T15:24:19.617Z,68.33
2022-11-24T15:26:49.083Z,63.00
2022-11-24T15:29:18.570Z,68.00
2022-11-24T15:31:52.553Z,65.00
2022-11-24T15:34:22.485Z,72.67
2022-11-24T15:36:51.958Z,65.67
2022-11-24T15:39:21.755Z,63.00
2022-11-24T15:41:51.416Z,73.33
2022-11-24T15:44:20.826Z,57.00
2022-11-24T15:46:50.296Z,60.00
2022-11-24T15:49:19.075Z,59.50
2022-11-24T15:51:49.088Z,52.50
2022-11-24T15:54:19.914Z,61.00
2022-11-24T15:56:49.365Z,64.00
2022-11-24T15:59:21.228Z,70.67
2022-11-24T16:01:51.246Z,47.33
2022-11-24T16:04:20.777Z,66.67
2022-11-24T16:06:50.199Z,65.33
2022-11-24T16:09:19.704Z,66.33
2022-11-24T16:11:49.637Z,69.00
2022-11-24T16:14:19.264Z,75.67
2022-11-24T16:16:48.786Z,68.33
2022-11-24T16:19:18.239Z,62.67
2022-11-24T16:21:51.040Z,62.00
2022-11-24T16:24:20.441Z,61.00
2022-11-24T16:26:49.950Z,51.00
2022-11-24T16:29:21.065Z,71.67
2022-11-24T16:31:52.935Z,64.67
2022-11-24T16:34:22.504Z,75.67
2022-11-24T16:36:51.966Z,76.00
2022-11-24T16:39:21.474Z,79.67
2022-11-24T16:41:50.891Z,78.33
2022-11-24T16:44:19.543Z,85.33
2022-11-24T16:46:49.302Z,90.00
2022-11-24T16:49:19.072Z,107.00
2022-11-24T16:51:48.612Z,99.33
2022-11-24T16:54:19.071Z,116.75
2022-11-24T16:56:48.765Z,108.50
2022-11-24T16:59:18.602Z,98.50
2022-11-24T17:01:50.814Z,107.75
2022-11-24T17:04:20.535Z,98.67
2022-11-24T17:06:50.058Z,101.00
2022-11-24T17:09:19.008Z,133.00
2022-11-24T17:11:49.413Z,115.25
2022-11-24T17:14:19.001Z,116.50
2022-11-24T17:16:48.754Z,99.00
2022-11-24T17:19:19.208Z,113.50
2022-11-24T17:21:48.719Z,89.67
2022-11-24T17:24:18.659Z,79.67
2022-11-24T17:26:52.360Z,78.33
2022-11-24T17:29:21.985Z,77.00
2022-11-24T17:31:51.538Z,82.33
2022-11-24T17:34:21.169Z,73.67
2022-11-24T17:36:50.653Z,81.67
2022-11-24T17:39:24.723Z,79.00
2022-11-24T17:41:57.404Z,89.00
2022-11-24T17:44:27.128Z,91.67
2022-11-24T17:46:57.708Z,97.25
2022-11-24T17:49:27.764Z,97.50
2022-11-24T17:51:57.338Z,81.33
2022-11-24T17:54:56.761Z,143.67
2022-11-24T17:57:16.480Z,253.50
2022-11-24T17:59:44.326Z,142.00
2022-11-24T18:02:14.015Z,172.00
2022-11-24T18:04:43.631Z,103.00
2022-11-24T18:07:13.252Z,121.50
2022-11-24T18:09:44.205Z,126.75
2022-11-24T18:12:13.792Z,96.33
2022-11-24T18:14:43.517Z,90.33
2022-11-24T18:17:13.394Z,80.00
2022-11-24T18:19:42.907Z,79.00
2022-11-24T18:22:12.392Z,76.67
2022-11-24T18:24:41.933Z,78.67
2022-11-24T18:27:11.512Z,83.00
2022-11-24T18:29:41.047Z,73.00
2022-11-24T18:32:10.548Z,78.33
2022-11-24T18:34:40.147Z,90.00
2022-11-24T18:37:13.431Z,85.00
2022-11-24T18:39:43.006Z,88.33
2022-11-24T18:42:12.678Z,84.67
2022-11-24T18:44:43.093Z,110.75
2022-11-24T18:47:13.564Z,123.25
2022-11-24T18:49:43.319Z,108.67
2022-11-24T18:52:12.996Z,96.67
2022-11-24T18:54:42.489Z,93.75
2022-11-24T18:57:11.979Z,80.33
2022-11-24T18:59:41.479Z,76.67
2022-11-24T19:02:12.376Z,70.33
2022-11-24T19:04:42.877Z,69.67
2022-11-24T19:07:12.510Z,73.67
2022-11-24T19:09:42.071Z,85.33
2022-11-24T19:12:11.935Z,74.67
2022-11-24T19:14:41.445Z,85.33
2022-11-24T19:17:10.947Z,77.67
2022-11-24T19:19:40.541Z,77.00
2022-11-24T19:22:10.149Z,81.00
2022-11-24T19:24:39.979Z,76.67
2022-11-24T19:27:10.827Z,78.00
2022-11-24T19:29:43.234Z,77.33
2022-11-24T19:32:12.947Z,74.67
2022-11-24T19:34:42.612Z,87.67
2022-11-24T19:37:12.107Z,71.00
2022-11-24T19:39:41.594Z,83.33
2022-11-24T19:42:11.206Z,90.33
2022-11-24T19:44:40.717Z,78.33
2022-11-24T19:47:10.254Z,73.33
2022-11-24T19:49:39.719Z,76.00
2022-11-24T19:52:09.209Z,69.67
2022-11-24T19:54:39.465Z,66.00
2022-11-24T19:57:08.930Z,65.67
2022-11-24T19:59:38.430Z,63.67
2022-11-24T20:02:07.981Z,70.67
2022-11-24T20:04:39.912Z,67.67
2022-11-24T20:07:09.505Z,62.67
2022-11-24T20:09:38.972Z,60.67
2022-11-24T20:12:09.934Z,58.00
2022-11-24T20:14:39.371Z,59.33
2022-11-24T20:17:08.924Z,63.33
2022-11-24T20:19:38.330Z,61.67
2022-11-24T20:22:07.794Z,62.00
2022-11-24T20:24:37.440Z,57.33
2022-11-24T20:27:07.641Z,58.33
2022-11-24T20:29:37.692Z,55.67
2022-11-24T20:32:08.258Z,54.50
2022-11-24T20:34:37.700Z,53.00
2022-11-24T20:37:13.369Z,61.00
2022-11-24T20:39:41.400Z,52.00
2022-11-24T20:42:10.057Z,49.50
2022-11-24T20:44:39.765Z,58.33
2022-11-24T20:47:09.272Z,52.00
2022-11-24T20:49:38.662Z,62.33
2022-11-24T20:52:07.379Z,60.00
2022-11-24T20:54:37.258Z,69.00
2022-11-24T20:57:06.860Z,68.00
2022-11-24T20:59:36.334Z,64.67
2022-11-24T21:02:06.056Z,71.33
2022-11-24T21:04:37.000Z,65.33
2022-11-24T21:07:06.657Z,60.00
2022-11-24T21:09:35.334Z,60.00
2022-11-24T21:12:05.148Z,61.00
2022-11-24T21:14:35.476Z,69.00
2022-11-24T21:17:05.069Z,64.00
2022-11-24T21:19:34.555Z,63.33
2022-11-24T21:22:03.990Z,62.33
2022-11-24T21:24:33.751Z,73.67
2022-11-24T21:27:03.384Z,65.33
2022-11-24T21:29:32.784Z,60.33
2022-11-24T21:32:02.326Z,58.33
2022-11-24T21:34:31.783Z,59.00
2022-11-24T21:37:00.468Z,66.00
2022-11-24T21:39:29.928Z,64.00
2022-11-24T21:41:59.395Z,60.33
2022-11-24T21:44:31.035Z,58.00
2022-11-24T21:47:00.470Z,56.33
2022-11-24T21:49:30.071Z,60.33
2022-11-24T21:51:58.726Z,57.00
2022-11-24T21:54:27.466Z,51.50
2022-11-24T21:56:56.886Z,59.33
2022-11-24T21:59:25.570Z,56.00
2022-11-24T22:01:55.093Z,55.00
2022-11-24T22:04:24.564Z,57.33
2022-11-24T22:06:54.374Z,59.00
2022-11-24T22:09:23.075Z,52.00
2022-11-24T22:11:53.201Z,59.50
2022-11-24T22:14:22.001Z,56.50
2022-11-24T22:16:51.477Z,57.00
2022-11-24T22:19:20.309Z,55.50
2022-11-24T22:21:49.019Z,53.50
2022-11-24T22:24:19.033Z,52.00
2022-11-24T22:26:49.331Z,62.00
2022-11-24T22:29:18.887Z,60.33
2022-11-24T22:31:48.352Z,50.33
2022-11-24T22:34:17.078Z,57.00
2022-11-24T22:36:46.536Z,63.00
2022-11-24T22:39:14.382Z,52.00
2022-11-24T22:41:43.034Z,52.50
2022-11-24T22:44:11.729Z,47.00
2022-11-24T22:46:40.348Z,54.00
2022-11-24T22:49:10.824Z,55.50
2022-11-24T22:51:40.508Z,57.00
2022-11-24T22:54:14.121Z,50.00
2022-11-24T22:56:41.822Z,32.00
2022-11-24T22:59:10.464Z,48.50
2022-11-24T23:01:39.153Z,58.50
2022-11-24T23:04:07.974Z,52.50
2022-11-24T23:06:37.442Z,57.67
2022-11-24T23:09:07.773Z,58.00
2022-11-24T23:11:41.493Z,51.00
2022-11-24T23:14:15.602Z,45.50
2022-11-24T23:16:44.518Z,56.00
2022-11-24T23:19:14.048Z,60.67
2022-11-24T23:21:43.464Z,61.00
2022-11-24T23:24:12.858Z,53.00
2022-11-24T23:26:42.588Z,60.67
2022-11-24T23:29:12.328Z,58.00
2022-11-24T23:31:41.768Z,56.33
2022-11-24T23:34:11.201Z,66.00
2022-11-24T23:36:40.057Z,61.00
2022-11-24T23:39:14.502Z,61.67
2022-11-24T23:41:44.000Z,66.33
2022-11-24T23:44:12.635Z,60.00
2022-11-24T23:46:42.110Z,56.67
2022-11-24T23:49:11.817Z,59.00
2022-11-24T23:51:42.191Z,62.33
2022-11-24T23:54:11.936Z,61.00
2022-11-24T23:56:41.376Z,63.00
2022-11-24T23:59:12.549Z,76.33
